sensor_id;sensor_type;location;lat;lon;timestamp;P1;durP1;ratioP1;P2;durP2;ratioP2
5428;SDS011;2737;52.386;9.980;2023-05-10T00:02:10;3.67;;;2.77;;
5428;SDS011;2737;52.386;9.980;2023-05-10T00:04:37;6.47;;;3.10;;
5428;SDS011;2737;52.386;9.980;2023-05-10T00:07:04;5.03;;;3.80;;
5428;SDS011;2737;52.386;9.980;2023-05-10T00:09:31;4.23;;;2.80;;
5428;SDS011;2737;52.386;9.980;2023-05-10T00:11:58;2.97;;;2.60;;
5428;SDS011;2737;52.386;9.980;2023-05-10T00:14:27;10.73;;;3.20;;
5428;SDS011;2737;52.386;9.980;2023-05-10T00:16:54;4.60;;;3.20;;
5428;SDS011;2737;52.386;9.980;2023-05-10T00:19:21;3.60;;;2.40;;
5428;SDS011;2737;52.386;9.980;2023-05-10T00:21:48;4.33;;;3.20;;
5428;SDS011;2737;52.386;9.980;2023-05-10T00:24:15;6.43;;;3.40;;
5428;SDS011;2737;52.386;9.980;2023-05-10T00:26:42;8.30;;;3.30;;
5428;SDS011;2737;52.386;9.980;2023-05-10T00:29:09;7.40;;;3.50;;
5428;SDS011;2737;52.386;9.980;2023-05-10T00:31:37;6.97;;;4.00;;
5428;SDS011;2737;52.386;9.980;2023-05-10T00:34:04;5.50;;;3.00;;
5428;SDS011;2737;52.386;9.980;2023-05-10T00:36:31;4.03;;;2.50;;
5428;SDS011;2737;52.386;9.980;2023-05-10T00:38:58;4.53;;;3.33;;
5428;SDS011;2737;52.386;9.980;2023-05-10T00:41:25;5.27;;;2.90;;
5428;SDS011;2737;52.386;9.980;2023-05-10T00:43:52;9.70;;;3.10;;
5428;SDS011;2737;52.386;9.980;2023-05-10T00:46:19;5.30;;;3.57;;
5428;SDS011;2737;52.386;9.980;2023-05-10T00:48:49;5.97;;;3.03;;
5428;SDS011;2737;52.386;9.980;2023-05-10T00:51:16;5.33;;;3.20;;
5428;SDS011;2737;52.386;9.980;2023-05-10T00:53:43;8.23;;;3.27;;
5428;SDS011;2737;52.386;9.980;2023-05-10T00:56:11;7.40;;;3.47;;
5428;SDS011;2737;52.386;9.980;2023-05-10T00:58:39;4.87;;;3.37;;
5428;SDS011;2737;52.386;9.980;2023-05-10T01:01:06;6.37;;;3.47;;
5428;SDS011;2737;52.386;9.980;2023-05-10T01:03:34;5.17;;;3.20;;
5428;SDS011;2737;52.386;9.980;2023-05-10T01:06:03;4.83;;;3.63;;
5428;SDS011;2737;52.386;9.980;2023-05-10T01:08:31;6.70;;;3.50;;
5428;SDS011;2737;52.386;9.980;2023-05-10T01:10:58;9.00;;;3.73;;
5428;SDS011;2737;52.386;9.980;2023-05-10T01:13:29;11.60;;;3.70;;
5428;SDS011;2737;52.386;9.980;2023-05-10T01:15:59;8.17;;;3.47;;
5428;SDS011;2737;52.386;9.980;2023-05-10T01:18:28;9.40;;;3.50;;
5428;SDS011;2737;52.386;9.980;2023-05-10T01:21:00;6.60;;;3.30;;
5428;SDS011;2737;52.386;9.980;2023-05-10T01:23:42;7.90;;;3.43;;
5428;SDS011;2737;52.386;9.980;2023-05-10T01:26:34;5.13;;;3.83;;
5428;SDS011;2737;52.386;9.980;2023-05-10T01:29:29;4.67;;;3.53;;
5428;SDS011;2737;52.386;9.980;2023-05-10T01:32:30;8.90;;;3.50;;
5428;SDS011;2737;52.386;9.980;2023-05-10T01:35:03;9.33;;;3.47;;
5428;SDS011;2737;52.386;9.980;2023-05-10T01:37:37;4.20;;;3.57;;
5428;SDS011;2737;52.386;9.980;2023-05-10T01:40:13;4.57;;;3.20;;
5428;SDS011;2737;52.386;9.980;2023-05-10T01:42:47;7.20;;;3.80;;
5428;SDS011;2737;52.386;9.980;2023-05-10T01:45:18;8.07;;;3.60;;
5428;SDS011;2737;52.386;9.980;2023-05-10T01:47:53;7.13;;;3.70;;
5428;SDS011;2737;52.386;9.980;2023-05-10T01:50:27;6.63;;;3.93;;
5428;SDS011;2737;52.386;9.980;2023-05-10T01:52:57;7.00;;;3.67;;
5428;SDS011;2737;52.386;9.980;2023-05-10T01:55:26;5.60;;;4.10;;
5428;SDS011;2737;52.386;9.980;2023-05-10T01:57:58;10.00;;;4.20;;
5428;SDS011;2737;52.386;9.980;2023-05-10T02:00:30;5.30;;;3.33;;
5428;SDS011;2737;52.386;9.980;2023-05-10T02:03:01;4.53;;;3.60;;
5428;SDS011;2737;52.386;9.980;2023-05-10T02:05:32;8.30;;;4.20;;
5428;SDS011;2737;52.386;9.980;2023-05-10T02:08:02;6.53;;;4.10;;
5428;SDS011;2737;52.386;9.980;2023-05-10T02:10:33;7.33;;;4.13;;
5428;SDS011;2737;52.386;9.980;2023-05-10T02:13:01;4.17;;;3.37;;
5428;SDS011;2737;52.386;9.980;2023-05-10T02:15:29;8.03;;;3.93;;
5428;SDS011;2737;52.386;9.980;2023-05-10T02:17:57;6.13;;;3.80;;
5428;SDS011;2737;52.386;9.980;2023-05-10T02:20:28;6.00;;;3.90;;
5428;SDS011;2737;52.386;9.980;2023-05-10T02:22:57;8.13;;;3.30;;
5428;SDS011;2737;52.386;9.980;2023-05-10T02:25:25;10.00;;;3.77;;
5428;SDS011;2737;52.386;9.980;2023-05-10T02:27:55;6.83;;;4.00;;
5428;SDS011;2737;52.386;9.980;2023-05-10T02:30:24;5.57;;;4.07;;
5428;SDS011;2737;52.386;9.980;2023-05-10T02:32:52;5.60;;;3.67;;
5428;SDS011;2737;52.386;9.980;2023-05-10T02:35:21;4.80;;;3.87;;
5428;SDS011;2737;52.386;9.980;2023-05-10T02:37:50;10.17;;;4.63;;
5428;SDS011;2737;52.386;9.980;2023-05-10T02:40:18;5.13;;;4.10;;
5428;SDS011;2737;52.386;9.980;2023-05-10T02:42:47;4.40;;;3.97;;
5428;SDS011;2737;52.386;9.980;2023-05-10T02:45:27;5.60;;;3.60;;
5428;SDS011;2737;52.386;9.980;2023-05-10T02:47:56;4.17;;;3.47;;
5428;SDS011;2737;52.386;9.980;2023-05-10T02:50:26;5.33;;;3.83;;
5428;SDS011;2737;52.386;9.980;2023-05-10T02:52:56;4.83;;;3.50;;
5428;SDS011;2737;52.386;9.980;2023-05-10T02:55:27;5.97;;;3.83;;
5428;SDS011;2737;52.386;9.980;2023-05-10T02:57:59;6.30;;;4.10;;
5428;SDS011;2737;52.386;9.980;2023-05-10T03:00:27;6.73;;;4.17;;
5428;SDS011;2737;52.386;9.980;2023-05-10T03:02:54;10.17;;;4.07;;
5428;SDS011;2737;52.386;9.980;2023-05-10T03:05:22;5.57;;;3.73;;
5428;SDS011;2737;52.386;9.980;2023-05-10T03:07:50;6.70;;;4.20;;
5428;SDS011;2737;52.386;9.980;2023-05-10T03:10:19;6.20;;;4.07;;
5428;SDS011;2737;52.386;9.980;2023-05-10T03:12:53;5.60;;;4.00;;
5428;SDS011;2737;52.386;9.980;2023-05-10T03:15:34;6.20;;;4.27;;
5428;SDS011;2737;52.386;9.980;2023-05-10T03:18:09;6.13;;;3.90;;
5428;SDS011;2737;52.386;9.980;2023-05-10T03:20:41;5.07;;;3.90;;
5428;SDS011;2737;52.386;9.980;2023-05-10T03:23:13;6.50;;;4.70;;
5428;SDS011;2737;52.386;9.980;2023-05-10T03:25:49;8.60;;;5.10;;
5428;SDS011;2737;52.386;9.980;2023-05-10T03:28:17;8.00;;;4.60;;
5428;SDS011;2737;52.386;9.980;2023-05-10T03:30:45;5.27;;;4.20;;
5428;SDS011;2737;52.386;9.980;2023-05-10T03:33:13;5.63;;;4.23;;
5428;SDS011;2737;52.386;9.980;2023-05-10T03:35:40;6.27;;;4.07;;
5428;SDS011;2737;52.386;9.980;2023-05-10T03:38:12;4.70;;;4.20;;
5428;SDS011;2737;52.386;9.980;2023-05-10T03:40:39;6.27;;;3.97;;
5428;SDS011;2737;52.386;9.980;2023-05-10T03:43:06;6.90;;;4.80;;
5428;SDS011;2737;52.386;9.980;2023-05-10T03:45:33;8.60;;;5.03;;
5428;SDS011;2737;52.386;9.980;2023-05-10T03:48:00;6.10;;;4.80;;
5428;SDS011;2737;52.386;9.980;2023-05-10T03:50:27;5.83;;;4.17;;
5428;SDS011;2737;52.386;9.980;2023-05-10T03:52:54;8.40;;;4.53;;
5428;SDS011;2737;52.386;9.980;2023-05-10T03:55:23;7.13;;;4.90;;
5428;SDS011;2737;52.386;9.980;2023-05-10T03:57:50;7.20;;;4.97;;
5428;SDS011;2737;52.386;9.980;2023-05-10T04:00:19;6.17;;;4.60;;
5428;SDS011;2737;52.386;9.980;2023-05-10T04:02:46;6.00;;;4.67;;
5428;SDS011;2737;52.386;9.980;2023-05-10T04:05:13;8.53;;;4.70;;
5428;SDS011;2737;52.386;9.980;2023-05-10T04:07:44;5.40;;;4.53;;
5428;SDS011;2737;52.386;9.980;2023-05-10T04:10:12;9.10;;;4.47;;
5428;SDS011;2737;52.386;9.980;2023-05-10T04:12:40;8.40;;;4.10;;
5428;SDS011;2737;52.386;9.980;2023-05-10T04:15:08;6.70;;;4.47;;
5428;SDS011;2737;52.386;9.980;2023-05-10T04:17:35;6.93;;;4.50;;
5428;SDS011;2737;52.386;9.980;2023-05-10T04:20:02;9.20;;;5.20;;
5428;SDS011;2737;52.386;9.980;2023-05-10T04:22:31;9.73;;;5.40;;
5428;SDS011;2737;52.386;9.980;2023-05-10T04:24:58;6.93;;;4.87;;
5428;SDS011;2737;52.386;9.980;2023-05-10T04:27:25;9.97;;;5.20;;
5428;SDS011;2737;52.386;9.980;2023-05-10T04:29:54;8.83;;;4.53;;
5428;SDS011;2737;52.386;9.980;2023-05-10T04:32:21;8.90;;;5.20;;
5428;SDS011;2737;52.386;9.980;2023-05-10T04:34:48;10.17;;;5.13;;
5428;SDS011;2737;52.386;9.980;2023-05-10T04:37:15;7.90;;;5.30;;
5428;SDS011;2737;52.386;9.980;2023-05-10T04:39:42;6.97;;;4.80;;
5428;SDS011;2737;52.386;9.980;2023-05-10T04:42:10;11.10;;;5.43;;
5428;SDS011;2737;52.386;9.980;2023-05-10T04:44:37;7.87;;;5.57;;
5428;SDS011;2737;52.386;9.980;2023-05-10T04:47:06;9.73;;;5.53;;
5428;SDS011;2737;52.386;9.980;2023-05-10T04:49:33;5.93;;;4.90;;
5428;SDS011;2737;52.386;9.980;2023-05-10T04:52:00;7.63;;;5.23;;
5428;SDS011;2737;52.386;9.980;2023-05-10T04:54:27;12.33;;;5.93;;
5428;SDS011;2737;52.386;9.980;2023-05-10T04:56:54;8.73;;;5.13;;
5428;SDS011;2737;52.386;9.980;2023-05-10T04:59:21;5.97;;;4.90;;
5428;SDS011;2737;52.386;9.980;2023-05-10T05:01:48;10.03;;;6.20;;
5428;SDS011;2737;52.386;9.980;2023-05-10T05:04:16;6.50;;;5.10;;
5428;SDS011;2737;52.386;9.980;2023-05-10T05:06:43;9.03;;;5.60;;
5428;SDS011;2737;52.386;9.980;2023-05-10T05:09:10;8.13;;;5.87;;
5428;SDS011;2737;52.386;9.980;2023-05-10T05:11:37;8.30;;;5.70;;
5428;SDS011;2737;52.386;9.980;2023-05-10T05:14:05;6.37;;;5.27;;
5428;SDS011;2737;52.386;9.980;2023-05-10T05:16:32;8.97;;;6.37;;
5428;SDS011;2737;52.386;9.980;2023-05-10T05:18:59;9.07;;;6.43;;
5428;SDS011;2737;52.386;9.980;2023-05-10T05:21:28;9.30;;;6.00;;
5428;SDS011;2737;52.386;9.980;2023-05-10T05:23:55;10.43;;;6.60;;
5428;SDS011;2737;52.386;9.980;2023-05-10T05:26:22;9.30;;;6.47;;
5428;SDS011;2737;52.386;9.980;2023-05-10T05:28:49;12.60;;;7.03;;
5428;SDS011;2737;52.386;9.980;2023-05-10T05:31:18;8.90;;;6.27;;
5428;SDS011;2737;52.386;9.980;2023-05-10T05:33:45;11.30;;;7.33;;
5428;SDS011;2737;52.386;9.980;2023-05-10T05:36:12;8.37;;;6.30;;
5428;SDS011;2737;52.386;9.980;2023-05-10T05:38:41;12.10;;;6.87;;
5428;SDS011;2737;52.386;9.980;2023-05-10T05:41:08;10.20;;;6.97;;
5428;SDS011;2737;52.386;9.980;2023-05-10T05:43:35;8.90;;;6.50;;
5428;SDS011;2737;52.386;9.980;2023-05-10T05:46:02;9.60;;;6.87;;
5428;SDS011;2737;52.386;9.980;2023-05-10T05:48:29;12.30;;;6.47;;
5428;SDS011;2737;52.386;9.980;2023-05-10T05:50:56;9.23;;;7.00;;
5428;SDS011;2737;52.386;9.980;2023-05-10T05:53:24;11.63;;;7.67;;
5428;SDS011;2737;52.386;9.980;2023-05-10T05:55:53;15.43;;;8.20;;
5428;SDS011;2737;52.386;9.980;2023-05-10T05:58:20;12.30;;;7.70;;
5428;SDS011;2737;52.386;9.980;2023-05-10T06:00:47;12.53;;;7.70;;
5428;SDS011;2737;52.386;9.980;2023-05-10T06:03:14;10.53;;;7.67;;
5428;SDS011;2737;52.386;9.980;2023-05-10T06:05:41;11.90;;;8.10;;
5428;SDS011;2737;52.386;9.980;2023-05-10T06:08:08;8.87;;;7.40;;
5428;SDS011;2737;52.386;9.980;2023-05-10T06:10:35;11.27;;;8.70;;
5428;SDS011;2737;52.386;9.980;2023-05-10T06:13:04;10.27;;;7.97;;
5428;SDS011;2737;52.386;9.980;2023-05-10T06:15:31;15.93;;;7.33;;
5428;SDS011;2737;52.386;9.980;2023-05-10T06:17:58;12.70;;;8.10;;
5428;SDS011;2737;52.386;9.980;2023-05-10T06:20:25;11.10;;;7.30;;
5428;SDS011;2737;52.386;9.980;2023-05-10T06:22:52;9.83;;;7.57;;
5428;SDS011;2737;52.386;9.980;2023-05-10T06:25:19;10.63;;;7.63;;
5428;SDS011;2737;52.386;9.980;2023-05-10T06:27:47;9.37;;;7.83;;
5428;SDS011;2737;52.386;9.980;2023-05-10T06:30:15;10.20;;;7.70;;
5428;SDS011;2737;52.386;9.980;2023-05-10T06:32:42;9.80;;;7.50;;
5428;SDS011;2737;52.386;9.980;2023-05-10T06:35:10;10.20;;;6.80;;
5428;SDS011;2737;52.386;9.980;2023-05-10T06:37:37;9.57;;;7.30;;
5428;SDS011;2737;52.386;9.980;2023-05-10T06:40:05;13.70;;;7.60;;
5428;SDS011;2737;52.386;9.980;2023-05-10T06:42:33;9.57;;;7.47;;
5428;SDS011;2737;52.386;9.980;2023-05-10T06:45:00;8.60;;;7.60;;
5428;SDS011;2737;52.386;9.980;2023-05-10T06:47:28;9.50;;;6.93;;
5428;SDS011;2737;52.386;9.980;2023-05-10T06:49:55;8.97;;;6.43;;
5428;SDS011;2737;52.386;9.980;2023-05-10T06:52:22;9.40;;;7.10;;
5428;SDS011;2737;52.386;9.980;2023-05-10T06:54:49;7.80;;;6.00;;
5428;SDS011;2737;52.386;9.980;2023-05-10T06:57:16;8.47;;;7.17;;
5428;SDS011;2737;52.386;9.980;2023-05-10T06:59:44;7.93;;;6.50;;
5428;SDS011;2737;52.386;9.980;2023-05-10T07:02:11;9.27;;;7.17;;
5428;SDS011;2737;52.386;9.980;2023-05-10T07:04:41;7.60;;;6.27;;
5428;SDS011;2737;52.386;9.980;2023-05-10T07:07:08;10.60;;;6.60;;
5428;SDS011;2737;52.386;9.980;2023-05-10T07:09:35;10.13;;;6.23;;
5428;SDS011;2737;52.386;9.980;2023-05-10T07:12:02;8.60;;;6.57;;
5428;SDS011;2737;52.386;9.980;2023-05-10T07:14:29;10.13;;;6.57;;
5428;SDS011;2737;52.386;9.980;2023-05-10T07:16:56;9.40;;;6.60;;
5428;SDS011;2737;52.386;9.980;2023-05-10T07:19:23;8.60;;;6.33;;
5428;SDS011;2737;52.386;9.980;2023-05-10T07:21:52;9.77;;;6.80;;
5428;SDS011;2737;52.386;9.980;2023-05-10T07:24:19;10.07;;;6.80;;
5428;SDS011;2737;52.386;9.980;2023-05-10T07:26:46;8.73;;;6.33;;
5428;SDS011;2737;52.386;9.980;2023-05-10T07:29:13;11.33;;;6.77;;
5428;SDS011;2737;52.386;9.980;2023-05-10T07:31:40;10.37;;;6.40;;
5428;SDS011;2737;52.386;9.980;2023-05-10T07:34:07;8.00;;;6.53;;
5428;SDS011;2737;52.386;9.980;2023-05-10T07:36:34;8.73;;;6.60;;
5428;SDS011;2737;52.386;9.980;2023-05-10T07:39:03;10.63;;;6.90;;
5428;SDS011;2737;52.386;9.980;2023-05-10T07:41:30;8.50;;;6.57;;
5428;SDS011;2737;52.386;9.980;2023-05-10T07:43:57;9.93;;;6.83;;
5428;SDS011;2737;52.386;9.980;2023-05-10T07:46:25;10.33;;;6.33;;
5428;SDS011;2737;52.386;9.980;2023-05-10T07:48:52;8.00;;;5.93;;
5428;SDS011;2737;52.386;9.980;2023-05-10T07:51:19;9.13;;;5.83;;
5428;SDS011;2737;52.386;9.980;2023-05-10T07:53:46;11.93;;;6.50;;
5428;SDS011;2737;52.386;9.980;2023-05-10T07:56:21;7.37;;;6.20;;
5428;SDS011;2737;52.386;9.980;2023-05-10T07:58:50;9.20;;;7.10;;
5428;SDS011;2737;52.386;9.980;2023-05-10T08:01:17;7.07;;;6.23;;
5428;SDS011;2737;52.386;9.980;2023-05-10T08:03:44;7.80;;;6.10;;
5428;SDS011;2737;52.386;9.980;2023-05-10T08:06:11;9.27;;;5.97;;
5428;SDS011;2737;52.386;9.980;2023-05-10T08:08:39;6.60;;;5.30;;
5428;SDS011;2737;52.386;9.980;2023-05-10T08:11:06;8.37;;;5.60;;
5428;SDS011;2737;52.386;9.980;2023-05-10T08:13:34;7.90;;;6.03;;
5428;SDS011;2737;52.386;9.980;2023-05-10T08:16:01;7.80;;;5.63;;
5428;SDS011;2737;52.386;9.980;2023-05-10T08:18:28;8.10;;;6.20;;
5428;SDS011;2737;52.386;9.980;2023-05-10T08:20:55;11.83;;;6.30;;
5428;SDS011;2737;52.386;9.980;2023-05-10T08:23:22;9.47;;;5.90;;
5428;SDS011;2737;52.386;9.980;2023-05-10T08:25:49;8.67;;;6.10;;
5428;SDS011;2737;52.386;9.980;2023-05-10T08:28:16;11.00;;;7.17;;
5428;SDS011;2737;52.386;9.980;2023-05-10T08:30:45;6.50;;;5.50;;
5428;SDS011;2737;52.386;9.980;2023-05-10T08:33:12;7.53;;;6.73;;
5428;SDS011;2737;52.386;9.980;2023-05-10T08:35:39;10.10;;;6.50;;
5428;SDS011;2737;52.386;9.980;2023-05-10T08:38:06;9.77;;;5.53;;
5428;SDS011;2737;52.386;9.980;2023-05-10T08:40:33;10.43;;;7.20;;
5428;SDS011;2737;52.386;9.980;2023-05-10T08:43:03;6.90;;;6.20;;
5428;SDS011;2737;52.386;9.980;2023-05-10T08:45:32;10.73;;;6.07;;
5428;SDS011;2737;52.386;9.980;2023-05-10T08:48:03;8.77;;;4.90;;
5428;SDS011;2737;52.386;9.980;2023-05-10T08:50:33;9.07;;;5.57;;
5428;SDS011;2737;52.386;9.980;2023-05-10T08:53:04;8.17;;;5.40;;
5428;SDS011;2737;52.386;9.980;2023-05-10T08:55:32;5.60;;;4.63;;
5428;SDS011;2737;52.386;9.980;2023-05-10T08:58:01;6.97;;;5.10;;
5428;SDS011;2737;52.386;9.980;2023-05-10T09:00:29;5.60;;;4.80;;
5428;SDS011;2737;52.386;9.980;2023-05-10T09:02:57;6.10;;;4.50;;
5428;SDS011;2737;52.386;9.980;2023-05-10T09:05:25;4.30;;;3.90;;
5428;SDS011;2737;52.386;9.980;2023-05-10T09:07:53;12.53;;;4.40;;
5428;SDS011;2737;52.386;9.980;2023-05-10T09:10:20;5.47;;;3.77;;
5428;SDS011;2737;52.386;9.980;2023-05-10T09:12:47;4.83;;;4.20;;
5428;SDS011;2737;52.386;9.980;2023-05-10T09:15:15;3.87;;;3.17;;
5428;SDS011;2737;52.386;9.980;2023-05-10T09:17:44;5.07;;;3.60;;
5428;SDS011;2737;52.386;9.980;2023-05-10T09:20:11;4.10;;;3.20;;
5428;SDS011;2737;52.386;9.980;2023-05-10T09:22:40;5.00;;;3.00;;
5428;SDS011;2737;52.386;9.980;2023-05-10T09:25:08;5.70;;;3.40;;
5428;SDS011;2737;52.386;9.980;2023-05-10T09:27:36;3.33;;;2.37;;
5428;SDS011;2737;52.386;9.980;2023-05-10T09:30:04;3.00;;;2.10;;
5428;SDS011;2737;52.386;9.980;2023-05-10T09:32:36;2.37;;;2.17;;
5428;SDS011;2737;52.386;9.980;2023-05-10T09:35:07;3.67;;;2.20;;
5428;SDS011;2737;52.386;9.980;2023-05-10T09:37:35;6.00;;;3.60;;
5428;SDS011;2737;52.386;9.980;2023-05-10T09:40:07;3.67;;;2.43;;
5428;SDS011;2737;52.386;9.980;2023-05-10T09:42:37;5.53;;;2.60;;
5428;SDS011;2737;52.386;9.980;2023-05-10T09:45:05;2.47;;;1.90;;
5428;SDS011;2737;52.386;9.980;2023-05-10T09:47:33;3.23;;;2.93;;
5428;SDS011;2737;52.386;9.980;2023-05-10T09:50:01;2.60;;;2.33;;
5428;SDS011;2737;52.386;9.980;2023-05-10T09:52:29;5.10;;;3.70;;
5428;SDS011;2737;52.386;9.980;2023-05-10T09:54:57;9.27;;;3.40;;
5428;SDS011;2737;52.386;9.980;2023-05-10T09:57:25;5.50;;;3.60;;
5428;SDS011;2737;52.386;9.980;2023-05-10T09:59:52;3.67;;;3.30;;
5428;SDS011;2737;52.386;9.980;2023-05-10T10:02:20;5.80;;;3.37;;
5428;SDS011;2737;52.386;9.980;2023-05-10T10:04:54;4.60;;;3.90;;
5428;SDS011;2737;52.386;9.980;2023-05-10T10:07:22;5.27;;;3.57;;
5428;SDS011;2737;52.386;9.980;2023-05-10T10:09:50;5.40;;;3.57;;
5428;SDS011;2737;52.386;9.980;2023-05-10T10:12:18;4.37;;;3.70;;
5428;SDS011;2737;52.386;9.980;2023-05-10T10:14:47;6.50;;;3.67;;
5428;SDS011;2737;52.386;9.980;2023-05-10T10:17:15;4.40;;;3.93;;
5428;SDS011;2737;52.386;9.980;2023-05-10T10:19:43;4.77;;;4.30;;
5428;SDS011;2737;52.386;9.980;2023-05-10T10:22:11;4.60;;;3.97;;
5428;SDS011;2737;52.386;9.980;2023-05-10T10:24:38;6.00;;;3.80;;
5428;SDS011;2737;52.386;9.980;2023-05-10T10:27:12;4.53;;;3.73;;
5428;SDS011;2737;52.386;9.980;2023-05-10T10:29:50;5.00;;;3.60;;
5428;SDS011;2737;52.386;9.980;2023-05-10T10:32:27;4.10;;;3.70;;
5428;SDS011;2737;52.386;9.980;2023-05-10T10:35:02;4.67;;;3.47;;
5428;SDS011;2737;52.386;9.980;2023-05-10T10:40:25;6.43;;;3.60;;
5428;SDS011;2737;52.386;9.980;2023-05-10T10:42:53;5.90;;;3.87;;
5428;SDS011;2737;52.386;9.980;2023-05-10T10:45:23;5.47;;;4.03;;
5428;SDS011;2737;52.386;9.980;2023-05-10T10:47:53;3.97;;;3.67;;
5428;SDS011;2737;52.386;9.980;2023-05-10T10:50:47;4.93;;;3.73;;
5428;SDS011;2737;52.386;9.980;2023-05-10T10:53:22;5.30;;;3.80;;
5428;SDS011;2737;52.386;9.980;2023-05-10T10:55:49;5.37;;;3.53;;
5428;SDS011;2737;52.386;9.980;2023-05-10T10:58:28;4.67;;;3.60;;
5428;SDS011;2737;52.386;9.980;2023-05-10T11:01:10;4.93;;;3.60;;
5428;SDS011;2737;52.386;9.980;2023-05-10T11:03:40;8.83;;;3.70;;
5428;SDS011;2737;52.386;9.980;2023-05-10T11:06:28;10.73;;;3.50;;
5428;SDS011;2737;52.386;9.980;2023-05-10T11:08:56;7.13;;;4.23;;
5428;SDS011;2737;52.386;9.980;2023-05-10T11:11:24;5.33;;;3.90;;
5428;SDS011;2737;52.386;9.980;2023-05-10T11:13:51;4.90;;;4.10;;
5428;SDS011;2737;52.386;9.980;2023-05-10T11:16:20;8.60;;;3.67;;
5428;SDS011;2737;52.386;9.980;2023-05-10T11:18:52;4.63;;;3.70;;
5428;SDS011;2737;52.386;9.980;2023-05-10T11:21:24;4.00;;;3.67;;
5428;SDS011;2737;52.386;9.980;2023-05-10T11:23:52;4.47;;;3.57;;
5428;SDS011;2737;52.386;9.980;2023-05-10T11:26:21;5.30;;;3.93;;
5428;SDS011;2737;52.386;9.980;2023-05-10T11:28:50;5.47;;;3.53;;
5428;SDS011;2737;52.386;9.980;2023-05-10T11:31:21;4.23;;;3.23;;
5428;SDS011;2737;52.386;9.980;2023-05-10T11:33:52;4.93;;;3.13;;
5428;SDS011;2737;52.386;9.980;2023-05-10T11:36:20;4.07;;;3.67;;
5428;SDS011;2737;52.386;9.980;2023-05-10T11:38:50;4.90;;;3.60;;
5428;SDS011;2737;52.386;9.980;2023-05-10T11:41:18;6.53;;;3.57;;
5428;SDS011;2737;52.386;9.980;2023-05-10T11:43:47;4.23;;;2.80;;
5428;SDS011;2737;52.386;9.980;2023-05-10T11:46:16;5.53;;;3.40;;
5428;SDS011;2737;52.386;9.980;2023-05-10T11:48:48;4.10;;;3.00;;
5428;SDS011;2737;52.386;9.980;2023-05-10T11:51:19;3.40;;;3.10;;
5428;SDS011;2737;52.386;9.980;2023-05-10T11:53:47;3.30;;;2.73;;
5428;SDS011;2737;52.386;9.980;2023-05-10T11:56:15;3.53;;;2.80;;
5428;SDS011;2737;52.386;9.980;2023-05-10T11:58:42;4.17;;;2.67;;
5428;SDS011;2737;52.386;9.980;2023-05-10T12:01:10;3.60;;;2.70;;
5428;SDS011;2737;52.386;9.980;2023-05-10T12:03:37;6.60;;;2.60;;
5428;SDS011;2737;52.386;9.980;2023-05-10T12:06:07;3.80;;;2.50;;
5428;SDS011;2737;52.386;9.980;2023-05-10T12:08:34;5.80;;;2.60;;
5428;SDS011;2737;52.386;9.980;2023-05-10T12:11:05;3.57;;;2.60;;
5428;SDS011;2737;52.386;9.980;2023-05-10T12:13:37;4.37;;;2.87;;
5428;SDS011;2737;52.386;9.980;2023-05-10T12:16:14;5.53;;;2.80;;
5428;SDS011;2737;52.386;9.980;2023-05-10T12:18:42;7.27;;;3.00;;
5428;SDS011;2737;52.386;9.980;2023-05-10T12:21:10;6.27;;;2.90;;
5428;SDS011;2737;52.386;9.980;2023-05-10T12:23:38;6.80;;;3.23;;
5428;SDS011;2737;52.386;9.980;2023-05-10T12:26:05;4.10;;;2.77;;
5428;SDS011;2737;52.386;9.980;2023-05-10T12:28:35;5.50;;;3.20;;
5428;SDS011;2737;52.386;9.980;2023-05-10T12:31:02;3.70;;;2.83;;
5428;SDS011;2737;52.386;9.980;2023-05-10T12:33:35;6.50;;;2.83;;
5428;SDS011;2737;52.386;9.980;2023-05-10T12:36:04;3.73;;;2.93;;
5428;SDS011;2737;52.386;9.980;2023-05-10T12:38:33;5.30;;;2.80;;
5428;SDS011;2737;52.386;9.980;2023-05-10T12:41:03;5.47;;;2.83;;
5428;SDS011;2737;52.386;9.980;2023-05-10T12:43:31;3.63;;;2.70;;
5428;SDS011;2737;52.386;9.980;2023-05-10T12:45:58;5.10;;;3.00;;
5428;SDS011;2737;52.386;9.980;2023-05-10T12:48:31;2.93;;;2.70;;
5428;SDS011;2737;52.386;9.980;2023-05-10T12:50:59;3.90;;;2.60;;
5428;SDS011;2737;52.386;9.980;2023-05-10T12:53:26;11.87;;;3.10;;
5428;SDS011;2737;52.386;9.980;2023-05-10T12:55:54;6.10;;;3.07;;
5428;SDS011;2737;52.386;9.980;2023-05-10T12:58:21;4.80;;;3.50;;
5428;SDS011;2737;52.386;9.980;2023-05-10T13:00:48;4.03;;;3.00;;
5428;SDS011;2737;52.386;9.980;2023-05-10T13:03:16;4.10;;;3.60;;
5428;SDS011;2737;52.386;9.980;2023-05-10T13:05:43;8.00;;;4.20;;
5428;SDS011;2737;52.386;9.980;2023-05-10T13:08:11;4.70;;;3.20;;
5428;SDS011;2737;52.386;9.980;2023-05-10T13:10:38;2.90;;;2.60;;
5428;SDS011;2737;52.386;9.980;2023-05-10T13:13:07;4.37;;;3.07;;
5428;SDS011;2737;52.386;9.980;2023-05-10T13:15:34;5.20;;;3.40;;
5428;SDS011;2737;52.386;9.980;2023-05-10T13:18:02;4.87;;;3.30;;
5428;SDS011;2737;52.386;9.980;2023-05-10T13:20:29;5.40;;;3.13;;
5428;SDS011;2737;52.386;9.980;2023-05-10T13:22:56;5.00;;;3.03;;
5428;SDS011;2737;52.386;9.980;2023-05-10T13:25:23;4.00;;;2.70;;
5428;SDS011;2737;52.386;9.980;2023-05-10T13:27:50;4.83;;;2.80;;
5428;SDS011;2737;52.386;9.980;2023-05-10T13:30:18;4.90;;;2.77;;
5428;SDS011;2737;52.386;9.980;2023-05-10T13:32:45;4.83;;;3.13;;
5428;SDS011;2737;52.386;9.980;2023-05-10T13:35:12;4.23;;;3.40;;
5428;SDS011;2737;52.386;9.980;2023-05-10T13:37:39;4.03;;;2.90;;
5428;SDS011;2737;52.386;9.980;2023-05-10T13:40:07;4.90;;;3.30;;
5428;SDS011;2737;52.386;9.980;2023-05-10T13:42:34;5.03;;;3.47;;
5428;SDS011;2737;52.386;9.980;2023-05-10T13:45:02;5.60;;;3.57;;
5428;SDS011;2737;52.386;9.980;2023-05-10T13:47:31;6.10;;;3.70;;
5428;SDS011;2737;52.386;9.980;2023-05-10T13:49:58;5.20;;;3.30;;
5428;SDS011;2737;52.386;9.980;2023-05-10T13:52:26;3.17;;;2.87;;
5428;SDS011;2737;52.386;9.980;2023-05-10T13:54:54;4.83;;;3.30;;
5428;SDS011;2737;52.386;9.980;2023-05-10T13:57:22;4.50;;;2.60;;
5428;SDS011;2737;52.386;9.980;2023-05-10T13:59:49;4.97;;;3.10;;
5428;SDS011;2737;52.386;9.980;2023-05-10T14:02:16;5.23;;;3.10;;
5428;SDS011;2737;52.386;9.980;2023-05-10T14:04:44;3.43;;;2.70;;
5428;SDS011;2737;52.386;9.980;2023-05-10T14:07:12;7.03;;;3.13;;
5428;SDS011;2737;52.386;9.980;2023-05-10T14:09:39;3.63;;;2.90;;
5428;SDS011;2737;52.386;9.980;2023-05-10T14:12:06;6.20;;;2.73;;
5428;SDS011;2737;52.386;9.980;2023-05-10T14:14:33;3.40;;;2.90;;
5428;SDS011;2737;52.386;9.980;2023-05-10T14:17:00;10.33;;;2.90;;
5428;SDS011;2737;52.386;9.980;2023-05-10T14:19:36;8.40;;;2.60;;
5428;SDS011;2737;52.386;9.980;2023-05-10T14:22:05;3.40;;;2.13;;
5428;SDS011;2737;52.386;9.980;2023-05-10T14:24:32;4.00;;;3.00;;
5428;SDS011;2737;52.386;9.980;2023-05-10T14:26:59;6.20;;;2.60;;
5428;SDS011;2737;52.386;9.980;2023-05-10T14:29:26;5.27;;;2.20;;
5428;SDS011;2737;52.386;9.980;2023-05-10T14:31:53;5.73;;;2.80;;
5428;SDS011;2737;52.386;9.980;2023-05-10T14:34:20;3.60;;;2.77;;
5428;SDS011;2737;52.386;9.980;2023-05-10T14:36:47;3.90;;;2.27;;
5428;SDS011;2737;52.386;9.980;2023-05-10T14:39:16;3.57;;;2.00;;
5428;SDS011;2737;52.386;9.980;2023-05-10T14:41:43;1.67;;;1.57;;
5428;SDS011;2737;52.386;9.980;2023-05-10T14:44:10;2.60;;;2.10;;
5428;SDS011;2737;52.386;9.980;2023-05-10T14:46:38;1.40;;;1.17;;
5428;SDS011;2737;52.386;9.980;2023-05-10T14:49:05;5.97;;;3.53;;
5428;SDS011;2737;52.386;9.980;2023-05-10T14:51:32;10.97;;;6.13;;
5428;SDS011;2737;52.386;9.980;2023-05-10T14:54:01;13.30;;;6.20;;
5428;SDS011;2737;52.386;9.980;2023-05-10T14:56:30;9.60;;;4.60;;
5428;SDS011;2737;52.386;9.980;2023-05-10T14:58:57;6.87;;;5.03;;
5428;SDS011;2737;52.386;9.980;2023-05-10T15:01:25;15.03;;;8.43;;
5428;SDS011;2737;52.386;9.980;2023-05-10T15:03:52;10.30;;;7.03;;
5428;SDS011;2737;52.386;9.980;2023-05-10T15:06:22;28.37;;;14.23;;
5428;SDS011;2737;52.386;9.980;2023-05-10T15:08:50;15.10;;;6.60;;
5428;SDS011;2737;52.386;9.980;2023-05-10T15:11:18;13.23;;;7.80;;
5428;SDS011;2737;52.386;9.980;2023-05-10T15:13:46;11.67;;;7.90;;
5428;SDS011;2737;52.386;9.980;2023-05-10T15:16:13;27.50;;;16.57;;
5428;SDS011;2737;52.386;9.980;2023-05-10T15:18:40;26.63;;;13.53;;
5428;SDS011;2737;52.386;9.980;2023-05-10T15:21:09;14.03;;;7.20;;
5428;SDS011;2737;52.386;9.980;2023-05-10T15:23:36;15.77;;;9.60;;
5428;SDS011;2737;52.386;9.980;2023-05-10T15:26:03;47.03;;;27.27;;